Please wait

Feedback

  Fields in red are required!

Regional Coastal Monitoring Programmes

Real time data

« Return to map for other wave, tide and met stations.

Note that these are real-time data and are not quality-controlled.

Perranporth

   
 

Latest Met Data:

Time (GMT) Air Pressure (mb) Wind Speed (knots) Wind Speed (ms-1) Gust Speed (knots) Gust Speed (ms-1) Wind direction (°) Air Temperature (°C) Rainfall (mm) Erythemal Radiation (W/m2) UV Index Relative Humidity (%)
22-09-2017 07:59 1015.1 5.1 2.5 13.3 6.7 180 13.8 - - - 0

Time (GMT) Air Pressure (mb) Wind Speed (knots) Wind Speed (ms-1) Gust Speed (knots) Gust Speed (ms-1) Wind direction (°) Air Temperature (°C) Rainfall (mm) Erythemal Radiation (W/m2) UV Index Relative Humidity (%)
14-09-2017 09:30 1010.2 30.5 15.3 36.5 18.3 300 13.8 - - - 0
14-09-2017 09:20 1010.1 31 15.5 35.7 17.9 300 13.6 - - - 0
14-09-2017 09:10 1009.9 29.4 14.7 34.7 17.4 310 13.6 - - - 0
14-09-2017 09:00 1009.4 30.7 15.4 37.9 18.9 300 13.7 - - - 0
14-09-2017 08:50 1009.3 31.6 15.8 37.2 18.6 310 13.7 - - - 0
14-09-2017 08:40 1009.2 29.6 14.8 36.2 18.1 300 13.9 - - - 0
14-09-2017 08:30 1008.8 31.2 15.6 36.6 18.3 290 13.8 - - - 0
14-09-2017 08:20 1008.8 30.2 15.1 35.7 17.9 310 13.7 - - - 0
14-09-2017 08:10 1008.6 28.6 14.3 35.9 17.9 310 13.7 - - - 0
14-09-2017 08:00 1008.4 30.6 15.3 36.1 18 320 13.6 - - - 0
14-09-2017 07:50 1008.3 29.7 14.8 35.1 17.5 320 13.5 - - - 0
14-09-2017 07:40 1008 30.6 15.3 34.4 17.2 310 13.5 - - - 0
14-09-2017 07:30 1008 27.2 13.6 37.1 18.6 300 13.5 - - - 0
14-09-2017 07:20 1007.8 28.4 14.2 32.9 16.4 300 13.4 - - - 0
14-09-2017 07:10 1007.8 30.5 15.2 34.3 17.2 320 13.2 - - - 0
14-09-2017 07:00 1007.8 29.2 14.6 35.5 17.8 330 13.2 - - - 0
14-09-2017 06:50 1007.4 28.4 14.2 34.5 17.3 320 13.3 - - - 0
14-09-2017 06:40 1007.3 29.8 14.9 36.4 18.2 310 13.1 - - - 0
14-09-2017 06:30 1007 27.7 13.8 37.3 18.7 320 13.2 - - - 0
14-09-2017 06:20 1006.7 32.6 16.3 38 19 310 13 - - - 0
14-09-2017 06:10 1006.6 32.1 16.1 36.5 18.3 310 13.1 - - - 0
14-09-2017 06:00 1006.3 31.3 15.6 38.7 19.3 300 13.2 - - - 0
14-09-2017 05:50 1006.2 33.6 16.8 39.5 19.8 300 13.2 - - - 0
14-09-2017 05:40 1006.3 27.5 13.8 38.4 19.2 310 12.8 - - - 0
14-09-2017 05:30 1005.7 34.8 17.4 39.7 19.8 310 13.2 - - - 0
14-09-2017 05:20 1005.6 33.6 16.8 39.3 19.7 300 13.2 - - - 0
14-09-2017 05:10 1005.3 30.8 15.4 39.1 19.5 300 13.2 - - - 0
14-09-2017 05:00 1005.2 30.3 15.1 35.7 17.8 300 13.3 - - - 0
14-09-2017 04:50 1005.2 32.4 16.2 37 18.5 310 13.2 - - - 0
14-09-2017 04:40 1005.2 33.1 16.6 37.9 18.9 310 13.2 - - - 0
14-09-2017 04:30 1005.1 33.3 16.7 38.7 19.4 300 13 - - - 0
14-09-2017 04:20 1004.6 35.2 17.6 40.9 20.4 290 13.2 - - - 0
14-09-2017 04:10 1004.7 32 16 38.6 19.3 290 13.3 - - - 0
14-09-2017 04:00 1004.8 32.2 16.1 40.3 20.1 300 13.1 - - - 0
14-09-2017 03:50 1005.1 31.4 15.7 39.9 20 300 13.1 - - - 0
14-09-2017 03:40 1004.8 31.8 15.9 36.8 18.4 280 13.3 - - - 0
14-09-2017 03:30 1004.6 31.4 15.7 37.2 18.6 290 13.1 - - - 0
14-09-2017 03:20 1004.7 32.5 16.3 38.2 19.1 320 13.1 - - - 0
14-09-2017 03:10 1004.5 34.3 17.1 40.3 20.1 300 12.9 - - - 0
14-09-2017 03:00 1004.5 31.2 15.6 38.1 19 300 12.9 - - - 0
14-09-2017 02:50 1004.3 34 17 40.7 20.4 320 12.9 - - - 0
14-09-2017 02:40 1004 30.9 15.4 39.4 19.7 320 12.8 - - - 0
14-09-2017 02:29 1003.9 32.9 16.4 39.5 19.8 310 12.7 - - - 0
14-09-2017 02:19 1003.6 29.8 14.9 38.1 19.1 310 12.8 - - - 0
14-09-2017 02:09 1003.5 31.9 15.9 36.6 18.3 310 12.7 - - - 0
14-09-2017 01:59 1003.5 31.6 15.8 36.4 18.2 310 12.8 - - - 0
14-09-2017 01:49 1003.4 29.7 14.9 36.2 18.1 330 12.8 - - - 0
14-09-2017 01:39 1003.1 32 16 38.1 19 300 12.8 - - - 0
14-09-2017 01:30 1002.9 30.5 15.3 38.3 19.2 300 12.9 - - - 0
14-09-2017 01:20 1002.6 32.6 16.3 37.6 18.8 290 12.8 - - - 0
14-09-2017 01:10 1002.7 28.9 14.5 38.2 19.1 310 13 - - - 0
14-09-2017 01:00 1002.4 31.3 15.7 40.4 20.2 310 12.9 - - - 0
14-09-2017 00:50 1002.2 31.4 15.7 38.4 19.2 310 12.8 - - - 0
14-09-2017 00:40 1001.5 26.6 13.3 32.8 16.4 280 12.6 - - - 0
14-09-2017 00:30 1001.4 29.7 14.9 34.9 17.5 270 12.3 - - - 0
14-09-2017 00:20 1001.7 26.3 13.2 30.7 15.4 280 12.4 - - - 0
14-09-2017 00:10 1001.7 27 13.5 33.3 16.6 290 12.3 - - - 0
14-09-2017 00:00 1001.2 25 12.5 28.8 14.4 290 12 - - - 0
13-09-2017 23:50 1001.3 23.1 11.5 28.3 14.2 300 12 - - - 0
13-09-2017 23:40 1001.1 25.5 12.7 30.3 15.2 290 12 - - - 0
13-09-2017 23:30 1001.1 22.8 11.4 28.2 14.1 280 11.5 - - - 0
13-09-2017 23:20 1001 26.4 13.2 31.8 15.9 270 12.2 - - - 0
13-09-2017 23:10 1001 28.3 14.2 34.9 17.4 300 11.6 - - - 0
13-09-2017 23:00 1001.1 24.9 12.5 30.1 15 290 12.4 - - - 0
13-09-2017 22:50 1001.5 23.7 11.8 37 18.5 290 11.5 - - - 0
13-09-2017 22:39 1000.8 29 14.5 40.1 20.1 280 12.5 - - - 0
13-09-2017 22:29 1001.1 33.7 16.8 41 20.5 290 12.5 - - - 0
13-09-2017 22:19 1000.8 29.4 14.7 37.1 18.5 290 12.5 - - - 0
13-09-2017 22:09 1000.7 29.7 14.9 36.2 18.1 290 12.1 - - - 0
13-09-2017 21:59 1000.3 27.8 13.9 40.8 20.4 270 13.1 - - - 0
13-09-2017 21:49 999.9 37.7 18.9 46.5 23.3 260 12.5 - - - 0
13-09-2017 21:39 1000.2 33.6 16.8 38.6 19.3 280 13.4 - - - 0
13-09-2017 21:29 999.9 33.5 16.7 40.1 20.1 270 13.4 - - - 0
13-09-2017 21:19 1000 32.3 16.2 38.9 19.4 270 13.6 - - - 0
13-09-2017 21:09 1000.5 26.3 13.1 36.5 18.2 300 13.1 - - - 0
13-09-2017 20:59 1000.1 32.5 16.2 42.7 21.4 280 13.3 - - - 0
13-09-2017 20:49 1000 34.8 17.4 41.2 20.6 280 13.2 - - - 0
13-09-2017 20:40 999.7 34.5 17.2 43.8 21.9 280 13.4 - - - 0
13-09-2017 20:30 999.6 35.8 17.9 44.4 22.2 270 13.6 - - - 0
13-09-2017 20:20 999.5 32 16 39.9 20 270 13.6 - - - 0
13-09-2017 20:10 999.4 32.1 16 36.9 18.4 270 13.5 - - - 0
13-09-2017 20:00 999.5 32.9 16.5 37.3 18.7 270 13.8 - - - 0
13-09-2017 19:50 999.3 32.7 16.4 40 20 270 13.6 - - - 0
13-09-2017 19:40 999.5 33.5 16.8 40.1 20.1 280 13.8 - - - 0
13-09-2017 19:30 999.3 31.1 15.6 36 18 280 13.8 - - - 0
13-09-2017 19:20 999.4 28.8 14.4 33.5 16.7 280 13.7 - - - 0
13-09-2017 19:10 999.3 30.2 15.1 35.8 17.9 280 13.8 - - - 0
13-09-2017 19:00 999.1 33.4 16.7 38 19 280 13.8 - - - 0
13-09-2017 18:50 998.7 29.9 14.9 37.2 18.6 260 13.5 - - - 0
13-09-2017 18:40 998.8 31.3 15.7 40.5 20.3 270 13 - - - 0
13-09-2017 18:30 997.9 39.7 19.8 45.1 22.6 270 12.1 - - - 0
13-09-2017 18:20 999.1 32.9 16.5 40.6 20.3 260 13.6 - - - 0
13-09-2017 18:10 998.8 35.9 18 44 22 270 13.6 - - - 0
13-09-2017 18:00 999 30.5 15.2 40.7 20.3 250 13.9 - - - 0
13-09-2017 17:50 998.9 33.4 16.7 38.6 19.3 260 14 - - - 0
13-09-2017 17:40 999 28.7 14.4 35.2 17.6 260 14 - - - 0
13-09-2017 17:30 999.1 32.2 16.1 37.5 18.7 270 14.1 - - - 0
13-09-2017 17:20 998.9 33.5 16.8 37.8 18.9 260 14 - - - 0
13-09-2017 17:10 999.1 31.3 15.6 39.1 19.6 260 14.1 - - - 0
13-09-2017 17:00 999 31.5 15.7 38.3 19.2 260 14.2 - - - 0
13-09-2017 16:50 999 34.5 17.3 38.3 19.1 260 14.3 - - - 0
13-09-2017 16:40 999 33 16.5 37.8 18.9 270 14.3 - - - 0
13-09-2017 16:30 999 31.5 15.8 37.2 18.6 250 14.4 - - - 0
13-09-2017 16:20 999.3 28.3 14.2 34.1 17.1 260 14.4 - - - 0
13-09-2017 16:10 999.4 28.9 14.4 33.5 16.7 260 14.6 - - - 0
13-09-2017 16:00 999.3 26.9 13.4 31.3 15.7 260 14.6 - - - 0
13-09-2017 15:50 999.5 29.2 14.6 34.3 17.1 270 14.4 - - - 0
13-09-2017 15:40 999.5 30.1 15 34 17 260 14.4 - - - 0
13-09-2017 15:30 999.7 29.3 14.6 34 17 260 14.4 - - - 0
13-09-2017 15:20 999.7 31.1 15.6 34.9 17.5 260 14.4 - - - 0
13-09-2017 15:10 999.8 27.5 13.7 32 16 260 14.5 - - - 0
13-09-2017 15:00 999.9 26.8 13.4 32.8 16.4 270 14.5 - - - 0
13-09-2017 14:50 1000 26.3 13.2 32.2 16.1 270 14.5 - - - 0
13-09-2017 14:40 1000.1 27.2 13.6 30.9 15.5 270 14.6 - - - 0
13-09-2017 14:30 1000.1 28.2 14.1 31.4 15.7 270 14.4 - - - 0
13-09-2017 14:20 1000.1 27.4 13.7 32.5 16.3 280 14.7 - - - 0
13-09-2017 14:10 1000 28.8 14.4 32.9 16.4 260 14.3 - - - 0
13-09-2017 14:00 1000.1 27.8 13.9 34.4 17.2 270 14.3 - - - 0
13-09-2017 13:50 1000.1 29.5 14.7 33.8 16.9 260 14.3 - - - 0
13-09-2017 13:40 1000.2 28.8 14.4 35.3 17.7 270 14.3 - - - 0
13-09-2017 13:30 1000.3 29.9 15 34.5 17.3 270 14.3 - - - 0
13-09-2017 13:20 1000.3 28.9 14.5 36.3 18.1 270 14.4 - - - 0
13-09-2017 13:10 1000.2 30.1 15.1 35.6 17.8 260 14.4 - - - 0
13-09-2017 13:00 1000.3 30.8 15.4 36.3 18.1 270 14.2 - - - 0
13-09-2017 12:50 1000.4 27.7 13.9 32.7 16.4 280 14.4 - - - 0
13-09-2017 12:40 1000.4 29.1 14.6 35.8 17.9 280 14.5 - - - 0
13-09-2017 12:30 1000.4 27.4 13.7 34.6 17.3 280 14.4 - - - 0
13-09-2017 12:20 1000.5 29.6 14.8 33.3 16.6 270 14.3 - - - 0
13-09-2017 12:10 1000.5 29.6 14.8 34.1 17.1 270 14.2 - - - 0
13-09-2017 12:00 1000.4 27.4 13.7 34 17 270 14.2 - - - 0
13-09-2017 11:50 1000.5 27.1 13.6 32.5 16.2 290 14.4 - - - 0
13-09-2017 11:40 1000.6 25.7 12.8 33.5 16.8 280 14 - - - 0
13-09-2017 11:30 1000.4 29.6 14.8 35.2 17.6 280 14 - - - 0
13-09-2017 11:20 1000.3 29.9 14.9 35.8 17.9 270 14.3 - - - 0
13-09-2017 11:10 1000 31.1 15.5 37.7 18.8 260 14.2 - - - 0
13-09-2017 11:00 1000 30.1 15 35.4 17.7 260 14 - - - 0
13-09-2017 10:50 1000.1 28.4 14.2 37.7 18.9 250 13.4 - - - 0
13-09-2017 10:40 999.9 28.6 14.3 32.3 16.1 260 13.3 - - - 0
13-09-2017 10:30 1000.4 25.1 12.6 29.8 14.9 250 12.6 - - - 0
13-09-2017 10:20 1000.6 26 13 34.6 17.3 250 12 - - - 0
13-09-2017 10:10 1000.4 29.7 14.9 35.8 17.9 250 11.8 - - - 0
13-09-2017 10:00 1000 32.2 16.1 38 19 260 11.8 - - - 0
13-09-2017 09:50 1000.1 32.2 16.1 39.3 19.7 270 11.7 - - - 0
13-09-2017 09:40 999.9 29.5 14.7 37.1 18.6 270 12.8 - - - 0
13-09-2017 09:30 1000.1 26.4 13.2 30.1 15.1 260 14 - - - 0